createdAt,value
2022-11-24T00:00:44.057Z,5.51
2022-11-24T00:05:46.726Z,5.49
2022-11-24T00:10:54.087Z,5.51
2022-11-24T00:15:57.034Z,5.51
2022-11-24T00:20:59.620Z,5.39
2022-11-24T00:26:02.192Z,5.26
2022-11-24T00:31:15.423Z,5.26
2022-11-24T00:36:19.710Z,5.37
2022-11-24T00:41:22.323Z,5.45
2022-11-24T00:46:25.030Z,5.32
2022-11-24T00:51:27.988Z,5.36
2022-11-24T00:56:30.714Z,5.48
2022-11-24T01:01:33.300Z,5.47
2022-11-24T01:06:42.448Z,5.55
2022-11-24T01:12:04.168Z,5.38
2022-11-24T01:17:06.967Z,5.31
2022-11-24T01:22:09.668Z,5.29
2022-11-24T01:27:12.277Z,5.16
2022-11-24T01:32:14.882Z,5.19
2022-11-24T01:37:17.475Z,4.99
2022-11-24T01:42:23.285Z,5.03
2022-11-24T01:47:25.846Z,5.08
2022-11-24T01:52:38.430Z,5.07
2022-11-24T01:57:41.171Z,5.09
2022-11-24T02:02:43.803Z,5.14
2022-11-24T02:07:46.511Z,5.19
2022-11-24T02:12:49.164Z,5.10
2022-11-24T02:17:51.754Z,5.00
2022-11-24T02:22:54.329Z,4.96
2022-11-24T02:27:57.006Z,4.96
2022-11-24T02:32:59.598Z,4.91
2022-11-24T02:38:02.290Z,4.86
2022-11-24T02:43:04.866Z,4.85
2022-11-24T02:48:07.480Z,5.02
2022-11-24T02:53:10.085Z,5.03
2022-11-24T02:58:15.947Z,5.08
2022-11-24T03:03:18.583Z,5.17
2022-11-24T03:08:21.261Z,5.21
2022-11-24T03:13:23.849Z,5.23
2022-11-24T03:18:26.433Z,5.25
2022-11-24T03:23:29.002Z,5.27
2022-11-24T03:28:33.957Z,5.32
2022-11-24T03:33:36.560Z,5.25
2022-11-24T03:38:39.222Z,5.24
2022-11-24T03:43:45.496Z,5.30
2022-11-24T03:48:48.468Z,5.32
2022-11-24T03:53:51.355Z,5.26
2022-11-24T03:58:53.935Z,5.31
2022-11-24T04:03:56.581Z,5.31
2022-11-24T04:08:59.250Z,5.34
2022-11-24T04:14:01.958Z,5.29
2022-11-24T04:19:04.566Z,5.41
2022-11-24T04:24:07.192Z,5.39
2022-11-24T04:29:09.853Z,5.35
2022-11-24T04:34:12.530Z,5.37
2022-11-24T04:39:24.892Z,5.37
2022-11-24T04:44:29.271Z,5.36
2022-11-24T04:49:32.225Z,5.40
2022-11-24T04:54:35.540Z,5.43
2022-11-24T04:59:38.419Z,5.49
2022-11-24T05:04:41.520Z,5.49
2022-11-24T05:09:59.677Z,5.59
2022-11-24T05:15:02.474Z,5.58
2022-11-24T05:20:05.102Z,5.59
2022-11-24T05:25:07.765Z,5.53
2022-11-24T05:30:10.811Z,5.35
2022-11-24T05:35:14.307Z,5.35
2022-11-24T05:40:16.923Z,5.42
2022-11-24T05:45:21.370Z,5.43
2022-11-24T05:50:24.075Z,5.50
2022-11-24T05:55:26.635Z,5.55
2022-11-24T06:00:29.256Z,5.61
2022-11-24T06:05:31.819Z,5.62
2022-11-24T06:10:34.698Z,5.67
2022-11-24T06:15:37.703Z,5.71
2022-11-24T06:20:40.444Z,5.74
2022-11-24T06:25:46.183Z,5.74
2022-11-24T06:30:52.785Z,5.74
2022-11-24T06:35:55.406Z,5.77
2022-11-24T06:40:58.001Z,5.81
2022-11-24T06:46:01.149Z,5.88
2022-11-24T06:51:03.827Z,5.93
2022-11-24T06:56:13.800Z,5.90
2022-11-24T07:01:18.732Z,5.94
2022-11-24T07:06:22.667Z,6.03
2022-11-24T07:11:25.345Z,5.99
2022-11-24T07:16:28.118Z,6.11
2022-11-24T07:21:31.156Z,6.19
2022-11-24T07:26:37.201Z,6.25
2022-11-24T07:31:39.889Z,6.16
2022-11-24T07:36:42.596Z,5.87
2022-11-24T07:41:49.460Z,5.70
2022-11-24T07:46:52.078Z,5.66
2022-11-24T07:51:54.730Z,5.65
2022-11-24T07:56:57.338Z,5.76
2022-11-24T08:02:00.254Z,5.85
2022-11-24T08:07:03.020Z,5.87
2022-11-24T08:12:05.680Z,5.94
2022-11-24T08:17:08.355Z,6.00
2022-11-24T08:22:11.060Z,6.11
2022-11-24T08:27:13.676Z,6.36
2022-11-24T08:32:21.751Z,6.67
2022-11-24T08:37:26.411Z,6.77
2022-11-24T08:42:29.120Z,6.89
2022-11-24T08:47:31.822Z,6.99
2022-11-24T08:52:34.413Z,7.18
2022-11-24T08:57:37.240Z,7.32
2022-11-24T09:02:40.022Z,7.31
2022-11-24T09:07:42.814Z,7.52
2022-11-24T09:12:45.596Z,7.87
2022-11-24T09:17:48.313Z,8.04
2022-11-24T09:23:01.013Z,8.08
2022-11-24T09:28:03.616Z,7.91
2022-11-24T09:33:06.289Z,8.07
2022-11-24T09:38:09.932Z,8.24
2022-11-24T09:43:12.680Z,8.29
2022-11-24T09:48:15.336Z,8.27
2022-11-24T09:53:18.008Z,8.34
2022-11-24T09:58:20.675Z,8.23
2022-11-24T10:03:23.377Z,8.16
2022-11-24T10:08:26.506Z,8.26
2022-11-24T10:13:29.164Z,8.43
2022-11-24T10:18:31.753Z,8.39
2022-11-24T10:23:39.776Z,8.04
2022-11-24T10:28:43.294Z,7.64
2022-11-24T10:33:45.966Z,7.36
2022-11-24T10:38:48.586Z,7.08
2022-11-24T10:43:51.171Z,6.52
2022-11-24T10:48:53.858Z,6.03
2022-11-24T10:53:59.685Z,5.82
2022-11-24T10:59:02.635Z,5.73
2022-11-24T11:04:05.252Z,5.89
2022-11-24T11:09:08.381Z,6.12
2022-11-24T11:14:21.006Z,6.34
2022-11-24T11:19:54.294Z,6.41
2022-11-24T11:24:46.313Z,6.23
2022-11-24T11:35:11.758Z,6.11
2022-11-24T11:40:14.611Z,6.27
2022-11-24T11:45:17.463Z,6.40
2022-11-24T11:50:20.206Z,6.31
2022-11-24T11:55:23.298Z,6.14
2022-11-24T12:00:25.899Z,6.17
2022-11-24T12:05:29.788Z,6.23
2022-11-24T12:10:34.034Z,6.15
2022-11-24T12:15:36.739Z,6.31
2022-11-24T12:20:39.507Z,6.59
2022-11-24T12:25:42.311Z,6.83
2022-11-24T12:30:44.925Z,6.93
2022-11-24T12:35:48.489Z,6.76
2022-11-24T12:40:51.081Z,6.77
2022-11-24T12:45:53.697Z,7.21
2022-11-24T12:50:56.439Z,7.45
2022-11-24T12:55:59.110Z,7.62
2022-11-24T13:01:01.795Z,7.69
2022-11-24T13:06:04.474Z,7.59
2022-11-24T13:11:07.059Z,7.18
2022-11-24T13:21:32.530Z,6.56
2022-11-24T13:26:37.535Z,6.61
2022-11-24T13:31:43.890Z,6.64
2022-11-24T13:36:46.577Z,6.71
2022-11-24T13:41:49.172Z,6.67
2022-11-24T13:46:51.912Z,6.73
2022-11-24T13:51:54.694Z,6.81
2022-11-24T13:56:57.326Z,6.86
2022-11-24T14:02:00.699Z,6.89
2022-11-24T14:12:26.659Z,6.89
2022-11-24T14:17:29.290Z,6.79
2022-11-24T14:22:31.862Z,6.81
2022-11-24T14:27:34.852Z,6.87
2022-11-24T14:32:37.855Z,6.91
2022-11-24T14:37:41.012Z,6.69
2022-11-24T14:42:44.125Z,6.59
2022-11-24T14:47:46.738Z,6.36
2022-11-24T14:52:49.309Z,5.62
2022-11-24T14:57:51.918Z,4.92
2022-11-24T15:03:00.866Z,4.71
2022-11-24T15:08:03.525Z,4.65
2022-11-24T15:13:06.224Z,4.50
2022-11-24T15:18:08.834Z,4.40
2022-11-24T15:23:11.528Z,4.58
2022-11-24T15:28:14.225Z,4.61
2022-11-24T15:33:19.350Z,4.43
2022-11-24T15:38:22.066Z,4.28
2022-11-24T15:43:24.635Z,4.14
2022-11-24T15:48:27.612Z,4.06
2022-11-24T15:53:30.347Z,4.01
2022-11-24T15:58:33.757Z,4.00
2022-11-24T16:03:46.860Z,4.20
2022-11-24T16:08:50.817Z,4.36
2022-11-24T16:13:54.601Z,4.45
2022-11-24T16:18:57.381Z,4.59
2022-11-24T16:24:00.223Z,4.69
2022-11-24T16:29:03.377Z,4.61
2022-11-24T16:34:06.094Z,4.56
2022-11-24T16:39:08.713Z,4.72
2022-11-24T16:44:11.740Z,4.81
2022-11-24T16:49:14.400Z,5.04
2022-11-24T16:54:17.281Z,4.97
2022-11-24T16:59:20.005Z,5.05
2022-11-24T17:04:22.616Z,4.95
2022-11-24T17:09:25.342Z,4.66
2022-11-24T17:14:28.012Z,4.54
2022-11-24T17:19:31.888Z,4.51
2022-11-24T17:24:35.856Z,4.56
2022-11-24T17:29:38.637Z,4.59
2022-11-24T17:34:41.276Z,4.46
2022-11-24T17:39:54.795Z,4.31
2022-11-24T17:45:06.873Z,4.34
2022-11-24T17:50:13.574Z,4.28
2022-11-24T17:55:16.215Z,4.22
2022-11-24T18:00:18.898Z,4.21
2022-11-24T18:05:21.661Z,4.23
2022-11-24T18:10:24.288Z,4.10
2022-11-24T18:15:26.872Z,3.95
2022-11-24T18:20:29.577Z,3.81
2022-11-24T18:25:33.163Z,3.75
2022-11-24T18:30:35.768Z,3.63
2022-11-24T18:35:39.589Z,3.52
2022-11-24T18:40:42.623Z,3.40
2022-11-24T18:45:55.375Z,3.38
2022-11-24T18:50:58.021Z,3.23
2022-11-24T18:56:00.592Z,3.21
2022-11-24T19:01:04.222Z,3.28
2022-11-24T19:06:06.893Z,3.24
2022-11-24T19:11:09.580Z,3.18
2022-11-24T19:16:12.259Z,3.08
2022-11-24T19:21:18.536Z,3.08
2022-11-24T19:26:21.318Z,3.03
2022-11-24T19:31:25.556Z,2.96
2022-11-24T19:36:28.307Z,2.91
2022-11-24T19:41:31.005Z,2.90
2022-11-24T19:46:33.607Z,2.83
2022-11-24T19:51:36.376Z,2.76
2022-11-24T19:56:39.120Z,2.64
2022-11-24T20:01:42.685Z,2.54
2022-11-24T20:06:45.519Z,2.54
2022-11-24T20:11:48.681Z,2.69
2022-11-24T20:16:51.674Z,2.65
2022-11-24T20:21:54.400Z,2.59
2022-11-24T20:26:58.120Z,2.52
2022-11-24T20:32:00.830Z,2.48
2022-11-24T20:37:03.586Z,2.32
2022-11-24T20:42:06.230Z,2.27
2022-11-24T20:47:09.023Z,2.29
2022-11-24T20:52:11.752Z,2.14
2022-11-24T20:57:14.360Z,2.13
2022-11-24T21:02:17.110Z,2.05
2022-11-24T21:07:19.943Z,2.04
2022-11-24T21:12:22.705Z,2.01
2022-11-24T21:17:25.421Z,1.96
2022-11-24T21:22:28.167Z,1.87
2022-11-24T21:27:31.779Z,1.82
2022-11-24T21:32:34.934Z,1.75
2022-11-24T21:37:38.046Z,1.81
2022-11-24T21:42:41.627Z,1.80
2022-11-24T21:47:46.501Z,1.85
2022-11-24T21:52:49.233Z,1.84
2022-11-24T21:57:51.893Z,1.91
2022-11-24T22:02:54.591Z,1.98
2022-11-24T22:07:57.358Z,1.95
2022-11-24T22:13:00.363Z,1.82
2022-11-24T22:18:03.167Z,1.94
2022-11-24T22:23:06.284Z,1.89
2022-11-24T22:28:08.980Z,1.80
2022-11-24T22:33:11.687Z,1.78
2022-11-24T22:38:14.315Z,1.84
2022-11-24T22:43:22.721Z,1.82
2022-11-24T22:48:25.679Z,1.75
2022-11-24T22:53:28.268Z,1.82
2022-11-24T22:58:30.912Z,1.84
2022-11-24T23:03:33.569Z,1.77
2022-11-24T23:08:36.200Z,1.74
2022-11-24T23:13:38.813Z,1.75
2022-11-24T23:18:42.978Z,1.68
2022-11-24T23:23:45.639Z,1.59
2022-11-24T23:28:48.349Z,1.43
2022-11-24T23:33:51.459Z,1.54
2022-11-24T23:38:54.565Z,1.54
2022-11-24T23:43:57.238Z,1.45
2022-11-24T23:48:59.903Z,1.41
2022-11-24T23:54:02.604Z,1.45
2022-11-24T23:59:05.737Z,1.48
